Time;durP1;ratioP1;P1;durP2;ratioP2;P2;SDS_P1;SDS_P2;PMS_P1;PMS_P2;Temp;Humidity;BMP_temperature;BMP_pressure;BME280_temperature;BME280_humidity;BME280_pressure;Samples;Min_cycle;Max_cycle;Signal;HPM_P1;HPM_P2
2022/01/24 00:01:06;;;;;;;16.27;11.10;;;;;;;-0.58;59.07;100277.13;6278656;22;20000;-78
2022/01/24 00:03:32;;;;;;;14.87;11.60;;;;;;;-0.20;59.33;100350.13;6277138;22;20019;-77
2022/01/24 00:05:58;;;;;;;15.47;9.90;;;;;;;-0.26;59.45;100345.28;6249276;22;20364;-78
2022/01/24 00:08:23;;;;;;;15.17;9.33;;;;;;;-0.29;58.93;100376.59;6276179;22;20524;-78
2022/01/24 00:10:51;;;;;;;14.50;9.90;;;;;;;-0.81;58.78;100278.44;6276011;22;20019;-78
2022/01/24 00:16:16;;;;;;;12.97;9.23;;;;;;;-0.54;58.90;100343.47;6276323;22;20046;-77
2022/01/24 00:26:47;;;;;;;12.90;9.13;;;;;;;-1.17;58.92;100252.84;6275870;22;20559;-78
2022/01/24 00:29:15;;;;;;;12.70;9.70;;;;;;;-1.10;58.65;100266.28;6248902;22;20083;-77
2022/01/24 00:31:41;;;;;;;15.60;9.30;;;;;;;-0.44;59.13;100380.09;6275949;22;20003;-78
2022/01/24 00:34:06;;;;;;;14.43;9.17;;;;;;;-0.74;58.54;100344.59;6276547;22;20000;-77
2022/01/24 00:36:32;;;;;;;13.93;9.93;;;;;;;-0.90;59.20;100319.59;6276455;22;20002;-77
2022/01/24 00:38:57;;;;;;;17.70;10.33;;;;;;;-0.50;59.05;100383.03;6276464;22;19992;-77
2022/01/24 00:41:23;;;;;;;16.47;9.93;;;;;;;-0.96;59.10;100311.25;6276222;22;19996;-77
2022/01/24 00:46:38;;;;;;;17.40;10.77;;;;;;;-0.56;58.87;100384.22;6276277;22;20018;-77
2022/01/24 00:57:03;;;;;;;13.27;9.27;;;;;;;-0.63;59.03;100392.44;6275691;22;20007;-77
2022/01/24 00:59:29;;;;;;;13.53;9.77;;;;;;;-0.60;58.84;100397.44;6277342;22;19988;-77
2022/01/24 01:01:55;;;;;;;12.87;10.77;;;;;;;-1.11;58.36;100308.66;6277554;22;19995;-77
2022/01/24 01:04:24;;;;;;;14.97;12.07;;;;;;;-1.02;58.59;100344.44;6277657;22;20007;-78
2022/01/24 01:06:50;;;;;;;17.33;11.77;;;;;;;-0.85;58.40;100362.47;6250290;22;20436;-77
2022/01/24 01:20:16;;;;;;;12.20;8.33;;;;;;;-1.28;58.83;100348.47;6277371;22;20088;-77
2022/01/24 01:22:42;;;;;;;11.93;8.43;;;;;;;-2.66;58.84;100119.47;6277232;22;20062;-78
2022/01/24 01:25:07;;;;;;;9.40;7.40;;;;;;;-1.17;59.22;100355.66;6277377;22;20357;-77
2022/01/24 01:27:39;;;;;;;12.40;8.63;;;;;;;-0.78;58.89;100415.66;6277171;22;19999;-78
2022/01/24 01:30:13;;;;;;;10.97;7.93;;;;;;;-0.96;59.08;100398.53;6249695;22;20452;-78
2022/01/24 01:32:53;;;;;;;11.57;7.90;;;;;;;-0.83;58.69;100446.19;6277408;22;20718;-78
2022/01/24 01:38:47;;;;;;;10.07;8.03;;;;;;;-1.66;58.81;100299.53;6225729;22;19992;-77
2022/01/24 01:55:37;;;;;;;10.07;7.73;;;;;;;-1.43;59.18;100409.69;6241533;22;20452;-78
2022/01/24 01:58:11;;;;;;;10.73;7.10;;;;;;;-1.60;59.97;100384.66;6276793;22;19995;-77
2022/01/24 02:00:39;;;;;;;10.50;7.33;;;;;;;-1.35;59.73;100437.78;6249568;22;20452;-77
2022/01/24 02:03:05;;;;;;;9.73;7.40;;;;;;;-1.71;59.82;100378.38;6276781;22;20000;-77
2022/01/24 02:05:30;;;;;;;11.43;7.60;;;;;;;-1.68;59.79;100383.38;6276807;22;20487;-78
2022/01/24 02:07:55;;;;;;;11.43;8.23;;;;;;;-1.30;59.73;100440.97;6277217;22;19999;-78
2022/01/24 02:10:24;;;;;;;10.90;7.97;;;;;;;-1.42;59.55;100415.72;6249157;22;20070;-77
2022/01/24 02:12:53;;;;;;;11.00;7.77;;;;;;;-1.63;59.89;100391.75;6276990;22;20053;-77
2022/01/24 02:15:27;;;;;;;10.07;7.97;;;;;;;-1.14;59.70;100483.28;6277092;22;20003;-78
2022/01/24 02:20:43;;;;;;;10.93;8.43;;;;;;;-1.64;59.97;100397.84;6277753;22;20524;-78
2022/01/24 02:25:39;;;;;;;11.70;8.60;;;;;;;-1.41;59.74;100443.28;6276679;22;20006;-77
2022/01/24 02:28:10;;;;;;;13.33;10.40;;;;;;;-1.25;60.08;100471.81;6276766;22;20623;-78
2022/01/24 02:33:16;;;;;;;12.33;8.90;;;;;;;-1.78;59.47;100405.50;6278789;22;19996;-78
2022/01/24 02:35:42;;;;;;;13.57;9.83;;;;;;;-1.41;59.96;100472.63;6279656;22;20000;-78
2022/01/24 02:38:20;;;;;;;11.70;9.20;;;;;;;-1.41;59.97;100477.78;6279720;22;19992;-78
2022/01/24 02:46:00;;;;;;;11.13;9.27;;;;;;;-1.30;59.80;100503.16;6280142;22;20365;-78
2022/01/24 02:48:59;;;;;;;11.00;8.83;;;;;;;-2.07;60.28;100420.75;6278416;22;20010;-78
2022/01/24 02:51:42;;;;;;;12.70;9.03;;;;;;;-1.85;60.46;100468.84;6277206;22;20427;-77
2022/01/24 02:54:17;;;;;;;11.30;8.63;;;;;;;-1.72;60.84;100488.00;6276612;22;20007;-79
2022/01/24 02:56:42;;;;;;;12.57;9.90;;;;;;;-2.09;60.94;100438.09;6276563;22;19999;-78
2022/01/24 02:59:08;;;;;;;12.97;10.20;;;;;;;-1.58;60.93;100534.75;6276599;22;19991;-78
2022/01/24 03:01:33;;;;;;;12.17;8.87;;;;;;;-1.94;61.04;100470.97;6276774;22;20000;-78
2022/01/24 03:03:58;;;;;;;12.20;9.30;;;;;;;-2.06;61.10;100456.06;6276208;22;20003;-77
2022/01/24 03:06:24;;;;;;;13.67;10.20;;;;;;;-1.72;61.35;100506.13;6249758;22;19992;-78
2022/01/24 03:08:49;;;;;;;14.73;10.63;;;;;;;-1.60;60.71;100528.81;6277020;22;20004;-77
2022/01/24 03:11:15;;;;;;;14.30;11.37;;;;;;;-1.56;61.18;100532.94;6249379;22;20003;-77
2022/01/24 03:13:41;;;;;;;13.97;11.40;;;;;;;-2.03;60.77;100453.31;6276554;22;20070;-78
2022/01/24 03:16:08;;;;;;;15.03;11.83;;;;;;;-1.71;60.34;100502.63;6276538;22;20067;-77
2022/01/24 03:18:34;;;;;;;13.40;10.70;;;;;;;-1.83;60.92;100509.25;6276544;22;19995;-77
2022/01/24 03:21:01;;;;;;;15.63;11.50;;;;;;;-2.10;60.64;100453.69;6276923;22;20399;-77
2022/01/24 03:23:27;;;;;;;13.37;11.17;;;;;;;-1.88;60.97;100477.59;6276738;22;20050;-78
2022/01/24 03:25:53;;;;;;;13.40;10.33;;;;;;;-1.58;60.49;100536.50;6276576;22;20023;-77
2022/01/24 03:28:18;;;;;;;15.87;11.60;;;;;;;-2.00;60.43;100468.69;6276882;22;20000;-77
2022/01/24 03:30:46;;;;;;;14.57;11.20;;;;;;;-1.59;60.83;100530.50;6276390;22;20000;-77
2022/01/24 03:33:12;;;;;;;12.87;9.60;;;;;;;-1.65;60.36;100531.66;6276089;22;19995;-77
2022/01/24 03:35:40;;;;;;;14.37;10.40;;;;;;;-1.62;60.92;100535.81;6249448;22;20007;-77
2022/01/24 03:38:05;;;;;;;14.40;11.23;;;;;;;-1.62;60.73;100544.44;6275916;22;20372;-77
2022/01/24 03:40:31;;;;;;;14.63;11.33;;;;;;;-1.98;60.11;100502.25;6276871;22;20023;-77
2022/01/24 03:42:56;;;;;;;14.23;11.23;;;;;;;-2.42;60.30;100430.22;6277012;22;20004;-78
2022/01/24 03:51:11;;;;;;;12.37;9.50;;;;;;;-2.21;60.22;100464.56;6152396;23;20475;-77
2022/01/24 03:53:38;;;;;;;14.00;9.73;;;;;;;-1.95;60.52;100500.34;6152824;23;20153;-77
2022/01/24 03:56:04;;;;;;;13.83;9.67;;;;;;;-1.65;59.40;100551.53;6211999;22;20003;-78
2022/01/24 03:58:30;;;;;;;14.60;9.47;;;;;;;-1.88;59.54;100511.22;6276461;22;20015;-77
2022/01/24 04:00:56;;;;;;;13.97;10.03;;;;;;;-1.64;59.61;100551.44;6249022;22;20350;-78
2022/01/24 04:03:22;;;;;;;15.87;11.43;;;;;;;-1.62;60.01;100556.53;6276293;22;20006;-78
2022/01/24 04:05:48;;;;;;;18.43;12.30;;;;;;;-2.09;59.59;100479.50;6276343;22;20025;-78
2022/01/24 04:08:14;;;;;;;19.10;13.87;;;;;;;-2.10;59.62;100474.38;6276201;22;20030;-78
2022/01/24 04:10:45;;;;;;;19.67;13.70;;;;;;;-1.92;59.43;100497.59;6276373;22;20484;-78
2022/01/24 04:18:58;;;;;;;17.70;11.33;;;;;;;-2.01;59.49;100499.81;6275929;22;20000;-77
2022/01/24 04:21:30;;;;;;;13.63;10.90;;;;;;;-1.71;58.85;100544.06;6276233;22;20445;-78
2022/01/24 04:26:28;;;;;;;12.25;8.95;;;;;;;-1.64;59.52;100558.38;6276353;22;19999;-78
2022/01/24 04:28:54;;;;;;;13.77;10.07;;;;;;;-1.44;59.11;100588.50;6249011;22;20015;-77
2022/01/24 04:31:20;;;;;;;15.80;12.23;;;;;;;-2.40;59.00;100430.13;6276299;22;20399;-77
2022/01/24 04:33:46;;;;;;;15.10;10.60;;;;;;;-1.39;59.04;100602.88;6250493;22;20386;-78
2022/01/24 04:36:12;;;;;;;13.33;10.10;;;;;;;-2.15;59.15;100489.31;6279444;22;20345;-78
2022/01/24 04:38:38;;;;;;;14.60;10.70;;;;;;;-1.51;59.56;100582.75;6251754;22;19988;-77
2022/01/24 04:41:12;;;;;;;20.83;13.83;;;;;;;-1.63;59.53;100567.81;6279332;22;20028;-78
2022/01/24 04:51:53;;;;;;;14.23;11.40;;;;;;;-1.38;59.11;100629.63;6276000;22;20065;-78
2022/01/24 04:57:03;;;;;;;13.90;12.00;;;;;;;-1.76;59.55;100566.75;6276088;22;20009;-78
2022/01/24 04:59:28;;;;;;;16.37;12.33;;;;;;;-1.65;59.20;100585.19;6275852;22;19996;-79
2022/01/24 05:01:54;;;;;;;18.50;12.80;;;;;;;-1.74;59.26;100590.81;6276181;22;19996;-77
2022/01/24 05:04:19;;;;;;;18.00;13.73;;;;;;;-1.37;59.20;100644.25;6275872;22;20010;-78
2022/01/24 05:06:45;;;;;;;17.30;13.03;;;;;;;-1.82;59.38;100564.44;6276263;22;20027;-77
2022/01/24 05:09:10;;;;;;;17.23;13.13;;;;;;;-1.46;58.95;100623.97;6247891;22;20007;-78
2022/01/24 05:12:15;;;;;;;20.80;16.17;;;;;;;-1.89;59.00;100563.06;6275049;22;20356;-78
2022/01/24 05:25:23;;;;;;;27.40;18.70;;;;;;;-1.73;59.52;100606.25;6276146;22;20456;-78
2022/01/24 05:27:48;;;;;;;27.27;18.70;;;;;;;-1.49;59.13;100653.44;6276541;22;20000;-77
2022/01/24 05:30:15;;;;;;;28.77;20.03;;;;;;;-1.63;58.99;100638.56;6275695;22;20338;-78
2022/01/24 05:32:40;;;;;;;25.77;18.57;;;;;;;-1.83;59.47;100620.56;6276290;22;20000;-78
2022/01/24 05:35:06;;;;;;;19.30;14.93;;;;;;;-1.46;59.46;100673.19;6276784;22;20393;-77
2022/01/24 05:37:32;;;;;;;18.53;14.27;;;;;;;-2.29;59.32;100546.84;6276491;22;20053;-78
2022/01/24 05:39:57;;;;;;;18.67;13.67;;;;;;;-1.94;59.10;100600.38;6249525;22;19999;-78
2022/01/24 05:42:23;;;;;;;17.33;13.70;;;;;;;-1.86;59.38;100618.13;6276188;22;19999;-78
2022/01/24 05:44:49;;;;;;;15.43;12.50;;;;;;;-1.51;59.42;100673.38;6276959;22;20461;-78
2022/01/24 05:47:15;;;;;;;13.60;10.83;;;;;;;-2.39;58.60;100528.31;6250519;22;20353;-78
2022/01/24 05:49:41;;;;;;;13.00;11.20;;;;;;;-1.50;59.04;100685.41;6277650;22;20004;-77
2022/01/24 05:52:09;;;;;;;12.60;10.13;;;;;;;-2.11;58.92;100573.63;6277680;22;20000;-78
2022/01/24 05:54:39;;;;;;;15.97;11.43;;;;;;;-1.74;59.15;100637.41;6278093;22;20015;-78
2022/01/24 05:57:05;;;;;;;19.40;13.50;;;;;;;-1.95;58.71;100603.88;6277211;22;20066;-77
2022/01/24 05:59:30;;;;;;;14.73;11.90;;;;;;;-1.68;58.35;100666.44;6276774;22;20035;-77
2022/01/24 06:01:56;;;;;;;14.30;10.47;;;;;;;-1.92;58.60;100629.59;6249875;22;20365;-77
2022/01/24 06:04:21;;;;;;;16.20;10.33;;;;;;;-1.95;58.76;100619.41;6249249;22;20136;-78
2022/01/24 06:06:47;;;;;;;15.03;11.67;;;;;;;-2.05;58.54;100610.38;6249459;22;20003;-78
2022/01/24 06:09:12;;;;;;;13.97;10.90;;;;;;;-2.00;57.78;100631.72;6276564;22;20012;-78
2022/01/24 06:11:37;;;;;;;16.23;12.07;;;;;;;-2.14;57.87;100597.88;6249891;22;20349;-78
2022/01/24 06:14:04;;;;;;;18.03;13.03;;;;;;;-2.02;57.98;100632.69;6276954;22;20002;-78
2022/01/24 06:16:29;;;;;;;23.27;15.67;;;;;;;-1.37;58.25;100721.97;6277045;22;20003;-78
2022/01/24 06:18:55;;;;;;;21.87;14.83;;;;;;;-1.29;58.05;100744.00;6276660;22;19992;-77
2022/01/24 06:21:20;;;;;;;29.23;18.73;;;;;;;-1.86;57.64;100664.72;6277048;22;20003;-78
2022/01/24 06:23:46;;;;;;;24.40;16.13;;;;;;;-1.74;57.79;100679.66;6276224;22;20359;-77
2022/01/24 06:26:11;;;;;;;22.30;15.97;;;;;;;-1.73;57.60;100664.97;6275897;22;19996;-78
2022/01/24 06:28:37;;;;;;;18.50;13.00;;;;;;;-1.31;57.17;100732.88;6275581;22;20069;-78
2022/01/24 06:31:03;;;;;;;17.77;13.27;;;;;;;-1.56;57.30;100687.47;6276075;22;20069;-78
2022/01/24 06:33:29;;;;;;;18.83;14.33;;;;;;;-1.12;57.18;100758.72;6276863;22;20395;-78
2022/01/24 06:35:54;;;;;;;18.97;13.60;;;;;;;-1.22;57.21;100739.38;6278041;22;20000;-78
2022/01/24 06:38:20;;;;;;;17.47;13.00;;;;;;;-1.26;56.67;100724.88;6251632;22;20447;-77
2022/01/24 06:40:45;;;;;;;20.40;15.77;;;;;;;-1.43;57.03;100693.75;6250823;22;20060;-78
2022/01/24 06:43:11;;;;;;;23.67;14.60;;;;;;;-1.34;56.60;100701.09;6277174;22;19995;-78
2022/01/24 06:45:36;;;;;;;21.10;15.07;;;;;;;-1.70;56.48;100629.41;6276116;22;20369;-77
2022/01/24 06:48:02;;;;;;;22.33;15.73;;;;;;;-1.70;56.31;100620.81;6275890;22;20330;-78
2022/01/24 06:50:28;;;;;;;23.70;15.37;;;;;;;-1.08;56.29;100718.81;6276087;22;20072;-78
2022/01/24 06:52:53;;;;;;;27.40;18.77;;;;;;;-0.77;56.06;100774.31;6274819;22;19995;-78
2022/01/24 06:55:18;;;;;;;24.87;19.00;;;;;;;-1.22;56.02;100704.84;6274481;22;20006;-78
2022/01/24 06:57:44;;;;;;;22.93;15.80;;;;;;;-1.15;55.79;100703.63;6247602;22;20445;-78
2022/01/24 07:00:10;;;;;;;16.40;13.00;;;;;;;-0.79;55.55;100768.38;6248154;22;20449;-77
2022/01/24 07:02:35;;;;;;;17.60;13.43;;;;;;;-1.39;55.44;100690.13;6274604;22;20053;-78
2022/01/24 07:05:01;;;;;;;19.43;13.80;;;;;;;-1.17;55.55;100727.03;6274873;22;19999;-77
2022/01/24 07:07:26;;;;;;;20.00;14.47;;;;;;;-1.34;55.44;100695.91;6275081;22;20053;-78
2022/01/24 07:09:52;;;;;;;21.37;15.90;;;;;;;-1.22;55.61;100715.22;6274798;22;20003;-78
2022/01/24 07:12:17;;;;;;;24.87;15.97;;;;;;;-0.89;55.28;100767.97;6275222;22;20024;-78
2022/01/24 07:14:44;;;;;;;23.67;16.37;;;;;;;-0.89;55.47;100774.91;6275384;22;19996;-77
2022/01/24 07:19:50;;;;;;;22.63;16.07;;;;;;;-1.02;55.84;100734.03;6277419;22;19996;-78
2022/01/24 07:22:15;;;;;;;21.03;15.17;;;;;;;-0.78;55.31;100762.25;6277566;22;19995;-78
2022/01/24 07:24:41;;;;;;;17.67;13.43;;;;;;;-1.46;55.20;100665.44;6250639;22;20028;-77
2022/01/24 07:27:06;;;;;;;18.93;14.13;;;;;;;-1.35;54.88;100679.53;6275704;22;19992;-77
2022/01/24 07:29:32;;;;;;;20.97;14.73;;;;;;;-1.12;55.20;100712.09;6250347;22;20004;-77
2022/01/24 07:31:57;;;;;;;20.73;14.23;;;;;;;-1.50;55.08;100651.75;6277277;22;20034;-78
2022/01/24 07:34:23;;;;;;;34.33;15.80;;;;;;;-1.24;54.96;100697.13;6276004;22;20031;-78
2022/01/24 07:36:49;;;;;;;20.30;13.67;;;;;;;-0.83;55.28;100753.88;6275692;22;20054;-77
2022/01/24 07:39:14;;;;;;;20.17;13.93;;;;;;;-0.71;55.03;100779.22;6275930;22;20019;-78
2022/01/24 07:41:47;;;;;;;20.97;14.83;;;;;;;-0.58;54.92;100787.22;6275716;22;20010;-78
2022/01/24 07:44:14;;;;;;;20.07;14.77;;;;;;;-0.85;54.91;100747.94;6275415;22;20373;-78
2022/01/24 07:46:40;;;;;;;21.33;15.27;;;;;;;-0.54;54.76;100781.81;6247453;22;20628;-78
2022/01/24 07:49:10;;;;;;;24.83;15.93;;;;;;;-0.75;54.76;100741.38;6273604;22;20040;-77
2022/01/24 07:51:37;;;;;;;20.13;15.37;;;;;;;-0.51;54.89;100797.22;6273247;22;20000;-77
2022/01/24 07:54:02;;;;;;;18.23;13.60;;;;;;;-0.99;54.69;100726.13;6274633;22;19995;-77
2022/01/24 07:56:28;;;;;;;19.57;14.53;;;;;;;-0.92;54.59;100755.16;6273564;22;20057;-77
2022/01/24 07:58:54;;;;;;;21.17;14.83;;;;;;;-1.08;54.28;100721.38;6273669;22;20440;-77
2022/01/24 08:01:20;;;;;;;21.80;15.57;;;;;;;-0.41;54.43;100793.25;6274290;22;20006;-78
2022/01/24 08:03:45;;;;;;;20.70;15.93;;;;;;;-0.35;54.03;100800.72;6274952;22;20000;-78
2022/01/24 08:06:10;;;;;;;18.23;14.17;;;;;;;-0.44;53.61;100770.06;6274097;22;20018;-78
2022/01/24 08:08:36;;;;;;;19.77;14.23;;;;;;;-0.53;53.76;100757.56;6273944;22;20007;-78
2022/01/24 08:11:01;;;;;;;17.83;13.57;;;;;;;-0.86;53.65;100686.63;6274917;22;19996;-78
2022/01/24 08:13:27;;;;;;;15.27;12.30;;;;;;;-0.86;53.44;100746.25;6273324;22;20487;-78
2022/01/24 08:15:52;;;;;;;15.70;12.47;;;;;;;-0.83;52.95;100736.56;6271539;22;20007;-78
2022/01/24 08:18:18;;;;;;;17.63;13.40;;;;;;;-0.42;53.14;100788.13;6246438;22;20437;-78
2022/01/24 08:20:43;;;;;;;17.20;12.60;;;;;;;-1.11;53.03;100689.59;6274056;22;20070;-78
2022/01/24 08:23:09;;;;;;;16.77;12.37;;;;;;;-0.72;53.26;100749.88;6246080;22;19995;-78
2022/01/24 08:25:35;;;;;;;17.47;13.27;;;;;;;-0.75;52.57;100747.38;6273201;22;20016;-78
2022/01/24 08:28:01;;;;;;;16.53;12.47;;;;;;;-0.65;52.58;100759.00;6272728;22;20440;-78
2022/01/24 08:30:26;;;;;;;17.03;13.43;;;;;;;-0.38;53.09;100784.47;6271436;22;20004;-78
2022/01/24 08:32:52;;;;;;;16.77;12.83;;;;;;;-0.84;52.13;100737.47;6269903;22;20007;-78
2022/01/24 08:35:20;;;;;;;17.83;12.37;;;;;;;-0.51;52.20;100807.59;6272429;22;19995;-78
2022/01/24 08:37:46;;;;;;;17.10;12.33;;;;;;;-0.91;52.18;100723.16;6245752;22;19999;-78
2022/01/24 08:40:21;;;;;;;16.93;12.07;;;;;;;-0.35;51.96;100800.72;6271977;22;19995;-78
2022/01/24 08:42:55;;;;;;;19.07;13.87;;;;;;;-0.32;52.56;100803.16;6274201;22;20361;-78
2022/01/24 08:48:05;;;;;;;16.47;11.53;;;;;;;-0.37;51.98;100814.69;6275571;22;20026;-77
2022/01/24 08:50:31;;;;;;;18.83;13.57;;;;;;;-0.69;51.94;100759.25;6278107;22;20047;-78
2022/01/24 08:52:59;;;;;;;15.70;10.83;;;;;;;-0.81;51.25;100739.91;6277825;22;20002;-78
2022/01/24 08:55:29;;;;;;;18.47;12.97;;;;;;;-0.61;51.76;100727.72;6276513;22;19996;-78
2022/01/24 08:57:56;;;;;;;15.60;10.80;;;;;;;-0.24;51.00;100812.31;6276730;22;19996;-78
2022/01/24 09:00:23;;;;;;;14.30;9.63;;;;;;;-0.65;51.11;100733.06;6278495;22;20049;-78
2022/01/24 09:02:49;;;;;;;18.80;12.67;;;;;;;-0.32;50.68;100791.94;6250152;22;20404;-78
2022/01/24 09:05:14;;;;;;;15.73;11.17;;;;;;;-0.62;50.56;100733.84;6272995;22;20015;-77
2022/01/24 09:07:40;;;;;;;14.87;10.40;;;;;;;-0.53;50.63;100738.56;6273602;22;20416;-78
2022/01/24 09:10:06;;;;;;;107.13;26.53;;;;;;;-0.50;50.58;100728.88;6274588;22;20061;-78
2022/01/24 09:12:32;;;;;;;15.43;9.40;;;;;;;0.21;50.20;100837.69;6273976;22;19996;-78
2022/01/24 09:14:58;;;;;;;13.97;10.40;;;;;;;-0.06;50.23;100788.00;6273677;22;20011;-78
2022/01/24 09:17:23;;;;;;;13.80;10.17;;;;;;;0.35;50.28;100809.22;6273002;22;20007;-78
2022/01/24 09:19:48;;;;;;;14.03;9.73;;;;;;;0.06;49.59;100758.00;6286408;22;20009;-79
2022/01/24 09:22:14;;;;;;;16.80;12.00;;;;;;;0.08;49.54;100762.19;6299127;22;20022;-78
2022/01/24 09:24:39;;;;;;;19.57;12.77;;;;;;;0.48;49.84;100825.81;6299095;22;19999;-78
2022/01/24 09:27:05;;;;;;;15.20;10.83;;;;;;;0.36;49.77;100790.09;6288519;22;20344;-78
2022/01/24 09:29:31;;;;;;;13.60;9.83;;;;;;;0.74;49.17;100846.97;6275006;22;19999;-78
2022/01/24 09:31:56;;;;;;;15.23;11.17;;;;;;;0.19;49.33;100746.03;6277369;22;20022;-77
2022/01/24 09:34:22;;;;;;;13.13;10.90;;;;;;;0.31;49.57;100764.38;6275951;22;20003;-77
2022/01/24 09:36:48;;;;;;;15.10;10.47;;;;;;;0.47;49.85;100800.75;6274233;22;19996;-77
2022/01/24 09:39:15;;;;;;;17.40;12.17;;;;;;;0.02;49.28;100726.16;6275467;22;20384;-78
2022/01/24 09:41:41;;;;;;;15.03;11.10;;;;;;;0.05;49.32;100719.97;6274739;22;20441;-78
2022/01/24 09:44:06;;;;;;;16.83;12.03;;;;;;;0.75;48.90;100807.06;6276098;22;20002;-77
2022/01/24 09:46:35;;;;;;;17.47;12.27;;;;;;;0.86;48.74;100833.31;6274091;22;20400;-77
2022/01/24 09:49:00;;;;;;;13.83;10.53;;;;;;;0.02;48.80;100707.16;6275687;22;20373;-77
2022/01/24 09:51:25;;;;;;;13.67;11.07;;;;;;;0.26;49.06;100736.97;6274735;22;19995;-77
2022/01/24 09:53:51;;;;;;;15.67;11.70;;;;;;;0.74;48.77;100823.56;6246236;22;20015;-77
2022/01/24 09:56:17;;;;;;;17.00;11.60;;;;;;;-0.13;49.20;100707.00;6275067;22;20429;-77
2022/01/24 09:58:43;;;;;;;19.77;12.67;;;;;;;0.52;49.82;100790.13;6248072;22;19996;-76
2022/01/24 10:01:08;;;;;;;20.60;13.90;;;;;;;0.29;49.28;100757.59;6275084;22;20000;-77
2022/01/24 10:03:34;;;;;;;18.57;13.00;;;;;;;0.57;49.18;100770.75;6251279;22;20007;-76
2022/01/24 10:06:00;;;;;;;17.07;12.03;;;;;;;0.57;48.90;100765.56;6277045;22;20027;-77
2022/01/24 10:08:26;;;;;;;15.73;11.73;;;;;;;0.88;49.09;100813.28;6273842;22;20011;-77
2022/01/24 10:10:58;;;;;;;16.27;11.63;;;;;;;0.46;49.12;100754.06;6275547;22;19999;-77
2022/01/24 10:16:25;;;;;;;14.67;11.33;;;;;;;0.94;48.32;100818.97;6275996;22;20010;-77
2022/01/24 10:19:17;;;;;;;14.80;11.20;;;;;;;0.35;48.92;100720.06;6275864;22;20015;-77
2022/01/24 10:21:45;;;;;;;18.77;12.70;;;;;;;1.01;48.66;100818.63;6275536;22;20066;-77
2022/01/24 10:24:40;;;;;;;16.13;12.40;;;;;;;1.07;48.20;100815.69;6275800;22;20449;-77
2022/01/24 10:27:20;;;;;;;19.13;14.00;;;;;;;1.05;48.37;100813.16;6248914;22;20000;-77
2022/01/24 10:29:55;;;;;;;15.70;11.93;;;;;;;1.11;48.53;100815.41;6276092;22;20000;-77
2022/01/24 10:32:40;;;;;;;14.90;11.33;;;;;;;0.71;48.54;100756.16;6247999;22;20004;-77
2022/01/24 10:35:47;;;;;;;18.80;12.53;;;;;;;1.14;47.86;100817.84;6248636;22;20000;-77
2022/01/24 10:41:24;;;;;;;17.50;12.07;;;;;;;0.80;48.13;100746.09;6224395;22;20062;-78
2022/01/24 10:43:55;;;;;;;13.47;9.80;;;;;;;1.18;47.92;100816.75;6274748;22;20070;-78
2022/01/24 10:46:27;;;;;;;17.25;13.13;;;;;;;1.19;47.79;100823.63;6247706;22;20018;-77
2022/01/24 10:49:06;;;;;;;16.30;12.48;;;;;;;1.22;46.25;100820.84;6275257;22;20056;-78
2022/01/24 10:51:47;;;;;;;13.90;10.10;;;;;;;0.89;47.13;100758.59;6248009;22;20394;-77
2022/01/24 10:54:26;;;;;;;14.40;11.70;;;;;;;1.18;47.42;100808.94;6274729;22;20075;-77
2022/01/24 10:56:52;;;;;;;16.83;11.60;;;;;;;0.49;47.74;100728.75;6275412;22;20006;-77
2022/01/24 10:59:22;;;;;;;14.43;11.37;;;;;;;0.95;47.19;100793.81;6247849;22;20118;-77
2022/01/24 11:01:56;;;;;;;17.00;11.87;;;;;;;0.53;46.63;100688.69;6275257;22;20053;-77
2022/01/24 11:04:29;;;;;;;18.33;12.97;;;;;;;0.72;47.33;100756.06;6275467;22;20049;-77
2022/01/24 11:07:00;;;;;;;18.77;14.13;;;;;;;0.88;47.11;100769.91;6248441;22;19999;-77
2022/01/24 11:09:34;;;;;;;19.37;14.70;;;;;;;1.13;47.42;100784.13;6274905;22;20083;-77
2022/01/24 11:12:06;;;;;;;18.63;13.83;;;;;;;0.91;47.46;100755.91;6274672;22;20069;-77
2022/01/24 11:14:32;;;;;;;15.55;11.77;;;;;;;1.16;47.12;100776.16;6248033;22;20053;-77
2022/01/24 11:16:59;;;;;;;16.23;12.00;;;;;;;1.00;46.70;100759.75;6247327;22;20000;-77
2022/01/24 11:22:00;;;;;;;17.63;13.20;;;;;;;1.06;46.78;100729.03;6275230;22;20438;-77
2022/01/24 11:24:39;;;;;;;18.55;12.07;;;;;;;1.27;47.04;100764.19;6275428;22;20003;-77
2022/01/24 11:27:06;;;;;;;18.87;13.80;;;;;;;1.10;46.71;100740.09;6275497;22;20503;-77
2022/01/24 11:29:33;;;;;;;16.63;11.93;;;;;;;1.15;46.85;100766.66;6248653;22;20061;-77
2022/01/24 11:32:11;;;;;;;16.83;12.17;;;;;;;1.53;46.93;100813.91;6276245;22;19999;-76
2022/01/24 11:34:39;;;;;;;19.50;13.57;;;;;;;1.06;47.22;100734.22;6273997;22;19995;-77
2022/01/24 11:37:06;;;;;;;17.20;13.10;;;;;;;1.63;46.88;100789.00;6274217;22;20027;-77
2022/01/24 11:39:33;;;;;;;16.67;12.33;;;;;;;1.58;46.58;100794.50;6246485;22;19992;-77
2022/01/24 11:41:59;;;;;;;17.73;12.77;;;;;;;1.71;46.41;100802.41;6243159;22;20007;-77
2022/01/24 11:44:34;;;;;;;24.37;14.03;;;;;;;1.71;46.48;100810.22;6273231;22;20019;-76
2022/01/24 11:47:01;;;;;;;14.47;11.43;;;;;;;1.34;46.38;100772.47;6248171;22;20003;-76
2022/01/24 11:49:36;;;;;;;16.63;11.77;;;;;;;1.33;46.26;100760.41;6304093;22;20003;-76
2022/01/24 11:52:04;;;;;;;17.13;11.30;;;;;;;1.61;46.05;100814.31;6305293;22;20002;-76
2022/01/24 11:57:17;;;;;;;17.77;13.73;;;;;;;1.40;45.93;100789.50;6306720;22;20053;-75
2022/01/24 11:59:43;;;;;;;16.83;11.73;;;;;;;1.47;45.99;100812.47;6306215;22;20048;-76
2022/01/24 12:02:12;;;;;;;15.70;12.10;;;;;;;0.89;45.54;100729.16;6306682;22;20003;-76
2022/01/24 12:05:08;;;;;;;16.07;12.23;;;;;;;1.41;45.05;100814.59;6305526;22;20056;-75
2022/01/24 12:07:44;;;;;;;16.83;12.10;;;;;;;1.01;45.27;100748.41;6306011;22;20002;-76
2022/01/24 12:10:36;;;;;;;39.87;16.07;;;;;;;1.43;45.64;100812.75;6302321;22;20064;-75
2022/01/24 12:13:22;;;;;;;15.75;12.13;;;;;;;1.22;45.81;100781.00;6306432;22;20633;-75
2022/01/24 12:15:48;;;;;;;19.43;13.70;;;;;;;1.45;46.06;100821.28;6306287;22;20033;-76
2022/01/24 12:18:26;;;;;;;21.03;13.93;;;;;;;1.39;45.52;100819.88;6278225;22;20003;-78
2022/01/24 12:21:06;;;;;;;18.13;12.93;;;;;;;1.38;45.42;100822.56;6305171;22;19995;-75
2022/01/24 12:23:36;;;;;;;18.87;12.53;;;;;;;1.35;45.70;100813.19;6276884;22;19999;-78
2022/01/24 12:26:12;;;;;;;19.83;12.20;;;;;;;1.39;45.67;100813.84;6304573;22;20066;-78
2022/01/24 12:28:43;;;;;;;17.77;12.30;;;;;;;1.36;45.42;100821.81;6277609;22;20506;-75
2022/01/24 12:31:13;;;;;;;36.85;16.17;;;;;;;1.38;45.58;100817.38;6305034;22;20052;-75
2022/01/24 12:33:39;;;;;;;21.90;14.30;;;;;;;1.36;45.55;100814.03;6306218;22;20003;-78
2022/01/24 12:36:14;;;;;;;20.20;14.47;;;;;;;1.34;45.32;100816.72;6306126;22;20003;-76
2022/01/24 12:38:39;;;;;;;53.80;16.27;;;;;;;1.43;45.64;100815.34;6305074;22;19991;-76
2022/01/24 12:41:39;;;;;;;25.27;15.47;;;;;;;1.35;45.09;100820.97;6277671;22;20002;-78
2022/01/24 12:46:32;;;;;;;18.20;13.07;;;;;;;0.75;45.61;100755.94;6304021;22;20006;-75
2022/01/24 12:49:00;;;;;;;16.70;12.27;;;;;;;0.76;45.89;100748.97;6304239;22;20441;-76
2022/01/24 12:51:28;;;;;;;32.97;14.30;;;;;;;0.69;45.89;100745.00;6277302;22;20508;-76
2022/01/24 12:53:55;;;;;;;19.37;13.70;;;;;;;1.04;46.11;100819.28;6305259;22;20422;-76
2022/01/24 12:56:29;;;;;;;20.33;13.90;;;;;;;0.86;45.80;100791.72;6308317;22;19995;-76
2022/01/24 12:58:56;;;;;;;21.20;11.50;;;;;;;0.75;45.82;100797.53;6280853;22;20042;-75
2022/01/24 13:01:33;;;;;;;14.80;11.47;;;;;;;0.92;45.54;100825.19;6307830;22;19999;-76
2022/01/24 13:04:02;;;;;;;17.20;12.43;;;;;;;1.09;46.49;100852.84;6308329;22;20006;-77
2022/01/24 13:06:35;;;;;;;16.63;12.43;;;;;;;0.98;46.27;100837.00;6308220;22;19999;-76
2022/01/24 13:09:13;;;;;;;18.10;12.03;;;;;;;1.10;46.40;100860.56;6281339;22;20455;-76
2022/01/24 13:11:54;;;;;;;18.83;13.40;;;;;;;1.00;46.19;100827.34;6280869;22;20470;-77
2022/01/24 13:14:27;;;;;;;21.60;15.60;;;;;;;1.06;46.21;100847.81;6307284;22;20070;-76
2022/01/24 13:22:42;;;;;;;19.73;15.07;;;;;;;1.18;45.81;100871.38;6308132;22;20356;-76
2022/01/24 13:25:25;;;;;;;19.37;13.60;;;;;;;1.18;45.53;100880.94;6308290;22;20082;-76